Time;durP1;ratioP1;P1;durP2;ratioP2;P2;SDS_P1;SDS_P2;PMS_P1;PMS_P2;Temp;Humidity;BMP_temperature;BMP_pressure;BME280_temperature;BME280_humidity;BME280_pressure;Samples;Min_cycle;Max_cycle;Signal;HPM_P1;HPM_P2
2022/03/29 20:56:15;;;;;;;5.20;3.07;;;;;;;6.04;84.45;91963.00;5058579;27;20537;-80
2022/03/29 20:58:43;;;;;;;3.50;3.20;;;;;;;5.82;84.63;91922.84;5039951;28;20525;-78
2022/03/29 21:01:11;;;;;;;2.00;2.00;;;;;;;6.04;85.45;91942.97;5045488;28;20587;-80
2022/03/29 21:03:38;;;;;;;3.17;3.07;;;;;;;5.93;84.32;91894.91;5053103;28;20568;-81
2022/03/29 21:06:06;;;;;;;1.83;1.83;;;;;;;6.04;82.77;91910.38;5044093;28;20615;-81
2022/03/29 21:08:34;;;;;;;1.77;1.77;;;;;;;6.00;82.63;91901.34;5053381;28;20200;-81
2022/03/29 21:11:01;;;;;;;1.63;1.63;;;;;;;6.02;82.70;91919.66;5053265;28;20463;-80
2022/03/29 21:13:32;;;;;;;1.20;1.20;;;;;;;6.21;82.95;91950.69;5052588;28;20533;-81
2022/03/29 21:16:00;;;;;;;1.17;1.17;;;;;;;6.16;82.88;91947.53;5054985;28;20530;-80
2022/03/29 21:18:28;;;;;;;1.63;1.57;;;;;;;6.17;82.98;91943.34;5052894;28;20563;-81
2022/03/29 21:20:58;;;;;;;0.90;0.90;;;;;;;6.10;83.10;91946.94;5053177;28;20554;-81
2022/03/29 21:23:28;;;;;;;1.97;1.93;;;;;;;5.97;83.48;91940.75;5052814;28;20560;-80
2022/03/29 21:25:57;;;;;;;2.03;1.97;;;;;;;5.81;83.43;91915.38;5053338;28;20221;-81
2022/03/29 21:28:25;;;;;;;3.17;1.53;;;;;;;5.91;83.82;91944.31;5052264;28;20641;-81
2022/03/29 21:30:54;;;;;;;2.73;2.43;;;;;;;6.06;84.09;91967.97;5053561;28;20280;-81
2022/03/29 21:33:21;;;;;;;2.20;1.90;;;;;;;5.77;83.55;91898.81;5053037;28;20553;-81
2022/03/29 21:38:32;;;;;;;4.27;2.07;;;;;;;6.13;82.96;91960.19;5115519;27;20827;-80
2022/03/29 21:41:00;;;;;;;3.23;2.40;;;;;;;6.09;82.85;91955.31;5114682;27;20484;-80
2022/03/29 21:43:28;;;;;;;1.70;1.60;;;;;;;5.84;83.01;91925.31;5114598;27;20594;-81
2022/03/29 21:45:55;;;;;;;1.60;1.60;;;;;;;5.87;82.74;91929.38;5114522;27;20530;-81
2022/03/29 21:48:23;;;;;;;2.17;2.07;;;;;;;5.89;83.01;91941.03;5114678;27;20617;-80
2022/03/29 21:50:50;;;;;;;1.93;1.67;;;;;;;5.82;83.26;91942.91;5114121;27;20549;-80
2022/03/29 21:53:18;;;;;;;1.77;1.77;;;;;;;5.84;83.58;91946.16;5115479;27;20624;-80
2022/03/29 21:55:47;;;;;;;1.50;1.50;;;;;;;5.97;83.45;91965.81;5113863;27;20569;-81
2022/03/29 21:58:14;;;;;;;1.57;1.57;;;;;;;6.17;82.65;91971.72;5115246;27;20465;-81
2022/03/29 22:00:56;;;;;;;1.80;1.77;;;;;;;5.97;82.42;91920.69;5114313;27;20605;-80
2022/03/29 22:08:52;;;;;;;7.10;2.53;;;;;;;6.00;83.09;91963.19;5095085;27;20623;-80
2022/03/29 22:11:19;;;;;;;12.03;1.73;;;;;;;5.70;83.02;91907.41;5092254;27;20199;-80
2022/03/29 22:13:50;;;;;;;2.03;1.90;;;;;;;6.08;83.26;91954.53;5072665;28;20470;-80
2022/03/29 22:16:17;;;;;;;1.63;1.63;;;;;;;6.09;83.07;91947.81;5073241;28;20604;-81
2022/03/29 22:18:44;;;;;;;1.67;1.67;;;;;;;6.17;82.63;91971.72;5073152;27;20646;-81
2022/03/29 22:21:11;;;;;;;1.60;1.50;;;;;;;5.84;82.66;91940.34;5073893;28;20568;-81
2022/03/29 22:23:39;;;;;;;2.30;2.13;;;;;;;5.83;82.92;91952.06;5073530;28;20469;-81
2022/03/29 22:26:08;;;;;;;1.57;1.57;;;;;;;5.51;83.26;91892.25;5074488;27;20576;-80
2022/03/29 22:28:36;;;;;;;1.43;1.43;;;;;;;5.86;83.70;91950.31;5073324;28;20630;-81
2022/03/29 22:31:04;;;;;;;1.40;1.40;;;;;;;5.96;83.46;91965.00;5073748;28;20738;-80
2022/03/29 22:33:31;;;;;;;3.80;2.47;;;;;;;5.97;83.47;91966.59;5073349;27;20200;-81
2022/03/29 22:35:58;;;;;;;1.17;1.17;;;;;;;5.45;83.70;91886.63;5073268;28;20614;-81
2022/03/29 22:38:26;;;;;;;1.80;1.80;;;;;;;5.92;83.30;91957.63;5073886;28;20630;-81
2022/03/29 22:40:53;;;;;;;3.20;1.53;;;;;;;5.87;83.27;91959.44;5073198;27;20464;-81
2022/03/29 22:43:22;;;;;;;1.37;1.37;;;;;;;5.63;83.40;91921.06;5074282;28;20548;-80
2022/03/29 22:45:49;;;;;;;1.70;1.70;;;;;;;5.96;83.98;91971.69;5072966;28;20448;-80
2022/03/29 22:48:18;;;;;;;5.30;1.97;;;;;;;5.87;83.41;91951.94;5073094;27;20540;-80
2022/03/29 22:50:46;;;;;;;5.77;1.60;;;;;;;5.53;83.32;91885.47;5073867;28;20210;-81
2022/03/29 22:53:13;;;;;;;1.30;1.30;;;;;;;5.88;83.22;91934.38;5072846;27;20545;-80
2022/03/29 22:55:40;;;;;;;1.27;1.27;;;;;;;5.63;83.06;91921.06;5074608;28;20584;-80
2022/03/29 22:58:09;;;;;;;2.07;1.97;;;;;;;5.78;83.27;91951.41;5072234;28;20596;-80
2022/03/29 23:00:38;;;;;;;2.43;1.33;;;;;;;5.71;83.78;91946.66;5073181;28;20188;-81
2022/03/29 23:03:06;;;;;;;3.53;2.07;;;;;;;5.60;83.79;91942.03;5072995;27;20572;-81
2022/03/29 23:05:34;;;;;;;1.83;1.73;;;;;;;5.31;84.01;91889.59;5071988;28;20560;-81
2022/03/29 23:08:01;;;;;;;1.23;1.13;;;;;;;5.77;83.46;91933.91;5072050;27;20635;-81
2022/03/29 23:10:29;;;;;;;1.30;1.30;;;;;;;6.06;82.59;91960.47;5071917;27;20223;-81
2022/03/29 23:12:56;;;;;;;1.00;1.00;;;;;;;5.81;82.70;91938.75;5072686;27;20637;-81
2022/03/29 23:15:24;;;;;;;1.53;1.43;;;;;;;5.61;83.00;91923.63;5073171;28;20564;-80
2022/03/29 23:17:55;;;;;;;1.70;1.70;;;;;;;5.81;83.12;91963.81;5072580;28;20501;-81
2022/03/29 23:20:23;;;;;;;1.50;1.50;;;;;;;5.61;83.38;91955.38;5058109;28;20216;-81
2022/03/29 23:22:50;;;;;;;1.37;1.37;;;;;;;4.91;84.75;91878.44;5073037;27;20278;-80
2022/03/29 23:25:17;;;;;;;1.63;1.63;;;;;;;4.90;85.43;91889.31;5078910;27;20583;-80
2022/03/29 23:27:44;;;;;;;1.23;1.23;;;;;;;4.93;85.49;91875.91;5079418;27;20462;-81
2022/03/29 23:30:12;;;;;;;4.83;1.97;;;;;;;5.43;85.58;91966.81;5074013;27;20277;-81
2022/03/29 23:32:39;;;;;;;2.40;2.30;;;;;;;4.92;85.45;91887.59;5072591;27;20496;-80
2022/03/29 23:35:10;;;;;;;1.90;1.90;;;;;;;4.75;86.13;91882.34;5078256;27;20538;-79
2022/03/29 23:37:37;;;;;;;1.13;1.13;;;;;;;5.16;87.08;91966.06;5078096;27;20581;-81
2022/03/29 23:40:05;;;;;;;6.10;1.77;;;;;;;5.15;87.37;91958.59;5079172;27;20445;-80
2022/03/29 23:42:32;;;;;;;1.37;1.37;;;;;;;5.25;86.68;91959.94;5078789;27;20196;-81
2022/03/29 23:45:00;;;;;;;1.60;1.60;;;;;;;5.26;87.01;91957.38;5078283;27;20554;-81
2022/03/29 23:47:27;;;;;;;4.20;1.23;;;;;;;5.27;86.79;91963.22;5078556;27;20547;-81
2022/03/29 23:49:54;;;;;;;2.00;1.90;;;;;;;4.94;87.21;91915.09;5078055;27;20582;-82
2022/03/29 23:52:23;;;;;;;1.57;1.53;;;;;;;4.79;86.86;91903.88;5078541;27;20595;-80
2022/03/29 23:54:50;;;;;;;4.77;1.90;;;;;;;5.17;86.77;91964.38;5077556;27;20588;-81
2022/03/29 23:57:17;;;;;;;1.40;1.30;;;;;;;4.66;86.66;91872.63;5079098;27;20491;-81
2022/03/29 23:59:45;;;;;;;1.67;1.67;;;;;;;4.58;87.06;91877.88;5078151;27;20515;-81
